createdAt,value
2023-04-15T00:01:08.159Z,91.62
2023-04-15T00:03:36.419Z,91.27
2023-04-15T00:06:03.848Z,92.51
2023-04-15T00:08:31.163Z,92.67
2023-04-15T00:11:02.882Z,93.19
2023-04-15T00:13:30.350Z,93.46
2023-04-15T00:15:57.527Z,93.38
2023-04-15T00:18:25.149Z,93.38
2023-04-15T00:20:52.673Z,93.60
2023-04-15T00:23:19.824Z,93.48
2023-04-15T00:25:47.575Z,93.45
2023-04-15T00:28:14.699Z,93.82
2023-04-15T00:30:43.184Z,93.54
2023-04-15T00:33:10.710Z,92.91
2023-04-15T00:35:37.975Z,92.17
2023-04-15T00:38:06.100Z,92.27
2023-04-15T00:40:33.691Z,91.90
2023-04-15T00:43:01.144Z,92.21
2023-04-15T00:45:28.724Z,92.87
2023-04-15T00:47:56.873Z,93.89
2023-04-15T00:50:24.178Z,93.31
2023-04-15T00:52:51.969Z,92.66
2023-04-15T00:55:19.652Z,92.19
2023-04-15T00:57:46.991Z,91.63
2023-04-15T01:00:14.576Z,91.67
2023-04-15T01:02:42.326Z,92.12
2023-04-15T01:05:09.823Z,92.56
2023-04-15T01:07:37.093Z,94.64
2023-04-15T01:10:05.165Z,95.86
2023-04-15T01:12:33.143Z,95.98
2023-04-15T01:15:01.100Z,95.91
2023-04-15T01:17:28.630Z,95.60
2023-04-15T01:19:57.943Z,95.38
2023-04-15T01:22:26.786Z,94.83
2023-04-15T01:25:04.753Z,94.62
2023-04-15T01:27:32.847Z,94.54
2023-04-15T01:30:00.356Z,94.78
2023-04-15T01:32:28.096Z,93.91
2023-04-15T01:35:13.766Z,93.88
2023-04-15T01:37:48.395Z,93.40
2023-04-15T01:40:17.416Z,93.22
2023-04-15T01:42:46.636Z,93.20
2023-04-15T01:45:17.507Z,93.32
2023-04-15T01:47:46.207Z,93.26
2023-04-15T01:50:15.304Z,93.34
2023-04-15T01:52:43.676Z,93.19
2023-04-15T01:55:12.683Z,93.08
2023-04-15T01:57:41.225Z,93.14
2023-04-15T02:00:10.053Z,93.61
2023-04-15T02:02:41.730Z,93.39
2023-04-15T02:05:10.985Z,93.68
2023-04-15T02:07:39.446Z,94.03
2023-04-15T02:10:08.997Z,94.11
2023-04-15T02:12:37.757Z,93.90
2023-04-15T02:15:07.179Z,94.70
2023-04-15T02:17:37.416Z,95.24
2023-04-15T02:20:06.550Z,95.53
2023-04-15T02:22:35.218Z,95.54
2023-04-15T02:25:04.333Z,94.83
2023-04-15T02:27:33.719Z,95.14
2023-04-15T02:30:02.423Z,94.98
2023-04-15T02:32:31.265Z,95.32
2023-04-15T02:35:03.961Z,94.83
2023-04-15T02:37:32.566Z,94.24
2023-04-15T02:40:01.700Z,94.84
2023-04-15T02:42:31.907Z,94.26
2023-04-15T02:45:01.147Z,95.10
2023-04-15T02:47:30.366Z,94.68
2023-04-15T02:50:00.492Z,95.20
2023-04-15T02:52:31.174Z,94.67
2023-04-15T02:55:02.486Z,95.08
2023-04-15T02:57:31.221Z,95.50
2023-04-15T03:00:00.010Z,94.70
2023-04-15T03:02:34.336Z,94.57
2023-04-15T03:05:04.157Z,95.73
2023-04-15T03:07:32.599Z,96.01
2023-04-15T03:10:01.203Z,96.13
2023-04-15T03:12:30.415Z,96.75
2023-04-15T03:15:00.422Z,97.02
2023-04-15T03:17:29.691Z,96.53
2023-04-15T03:19:58.717Z,95.83
2023-04-15T03:22:27.210Z,95.67
2023-04-15T03:24:56.177Z,96.68
2023-04-15T03:27:25.524Z,96.94
2023-04-15T03:29:56.869Z,97.63
2023-04-15T03:32:27.176Z,98.55
2023-04-15T03:34:55.759Z,98.81
2023-04-15T03:37:24.165Z,98.67
2023-04-15T03:39:52.884Z,98.29
2023-04-15T03:42:21.289Z,98.55
2023-04-15T03:44:49.749Z,98.14
2023-04-15T03:47:18.525Z,97.03
2023-04-15T03:49:46.934Z,97.81
2023-04-15T03:52:15.468Z,98.51
2023-04-15T03:54:44.221Z,98.73
2023-04-15T03:57:12.746Z,98.97
2023-04-15T03:59:41.204Z,99.23
2023-04-15T04:02:09.979Z,98.39
2023-04-15T04:04:38.870Z,98.03
2023-04-15T04:07:07.323Z,98.58
2023-04-15T04:09:36.312Z,98.92
2023-04-15T04:12:05.067Z,99.16
2023-04-15T04:14:33.465Z,99.39
2023-04-15T04:17:02.022Z,99.66
2023-04-15T04:19:31.007Z,99.87
2023-04-15T04:21:59.417Z,99.35
2023-04-15T04:24:27.883Z,98.19
2023-04-15T04:26:57.303Z,98.57
2023-04-15T04:29:25.829Z,97.92
2023-04-15T04:31:54.234Z,97.92
2023-04-15T04:34:22.976Z,98.95
2023-04-15T04:36:51.603Z,99.90
2023-04-15T04:39:20.048Z,100.00
2023-04-15T04:41:48.871Z,100.00
2023-04-15T04:44:17.455Z,100.00
2023-04-15T04:46:45.905Z,99.75
2023-04-15T04:49:14.622Z,99.24
2023-04-15T04:51:43.197Z,98.42
2023-04-15T04:54:11.856Z,97.85
2023-04-15T04:56:41.045Z,97.04
2023-04-15T04:59:09.471Z,97.20
2023-04-15T05:01:38.027Z,98.37
2023-04-15T05:04:07.913Z,97.61
2023-04-15T05:06:36.845Z,97.11
2023-04-15T05:09:05.299Z,95.40
2023-04-15T05:11:33.990Z,95.89
2023-04-15T05:14:02.482Z,94.77
2023-04-15T05:16:30.922Z,94.24
2023-04-15T05:18:59.826Z,93.06
2023-04-15T05:21:28.333Z,93.02
2023-04-15T05:23:56.705Z,93.67
2023-04-15T05:26:25.711Z,92.90
2023-04-15T05:28:54.254Z,93.19
2023-04-15T05:31:22.885Z,93.55
2023-04-15T05:33:51.666Z,94.15
2023-04-15T05:36:20.075Z,93.33
2023-04-15T05:38:48.468Z,93.50
2023-04-15T05:41:19.705Z,93.58
2023-04-15T05:43:48.247Z,92.73
2023-04-15T05:46:17.015Z,91.61
2023-04-15T05:48:45.559Z,89.66
2023-04-15T05:51:14.025Z,88.81
2023-04-15T05:53:42.690Z,88.61
2023-04-15T05:56:11.032Z,87.65
2023-04-15T05:58:39.372Z,86.39
2023-04-15T06:01:07.978Z,88.11
2023-04-15T06:03:36.672Z,88.03
2023-04-15T06:06:05.130Z,87.58
2023-04-15T06:08:33.461Z,87.33
2023-04-15T06:11:02.126Z,85.90
2023-04-15T06:13:30.454Z,84.37
2023-04-15T06:15:58.999Z,84.97
2023-04-15T06:18:27.635Z,84.64
2023-04-15T06:20:56.053Z,84.96
2023-04-15T06:23:25.743Z,84.46
2023-04-15T06:25:55.056Z,87.53
2023-04-15T06:28:23.378Z,86.12
2023-04-15T06:30:51.687Z,82.36
2023-04-15T06:33:20.950Z,83.14
2023-04-15T06:35:49.746Z,81.89
2023-04-15T06:38:18.121Z,81.80
2023-04-15T06:40:46.718Z,81.88
2023-04-15T06:43:15.429Z,81.02
2023-04-15T06:45:43.838Z,82.22
2023-04-15T06:48:12.782Z,81.93
2023-04-15T06:50:41.374Z,79.83
2023-04-15T06:53:09.760Z,79.34
2023-04-15T06:55:38.452Z,79.64
2023-04-15T06:58:06.992Z,78.19
2023-04-15T07:00:35.648Z,77.01
2023-04-15T07:03:04.380Z,76.52
2023-04-15T07:05:33.517Z,76.21
2023-04-15T07:08:01.993Z,74.79
2023-04-15T07:10:30.653Z,74.33
2023-04-15T07:12:58.993Z,76.74
2023-04-15T07:15:27.473Z,73.85
2023-04-15T07:17:56.408Z,74.84
2023-04-15T07:20:24.968Z,76.05
2023-04-15T07:22:53.883Z,76.08
2023-04-15T07:25:22.849Z,71.55
2023-04-15T07:27:53.064Z,71.41
2023-04-15T07:30:21.491Z,72.76
2023-04-15T07:32:50.214Z,71.37
2023-04-15T07:35:21.133Z,73.57
2023-04-15T07:37:49.800Z,72.44
2023-04-15T07:40:18.189Z,70.89
2023-04-15T07:42:47.268Z,71.39
2023-04-15T07:45:16.277Z,72.22
2023-04-15T07:47:44.660Z,71.68
2023-04-15T07:50:13.040Z,73.36
2023-04-15T07:52:41.986Z,73.73
2023-04-15T07:55:10.796Z,75.69
2023-04-15T07:57:39.109Z,72.71
2023-04-15T08:00:08.396Z,73.56
2023-04-15T08:02:41.592Z,74.68
2023-04-15T08:05:10.860Z,72.81
2023-04-15T08:07:39.770Z,72.94
2023-04-15T08:10:08.736Z,72.99
2023-04-15T08:12:37.454Z,76.01
2023-04-15T08:15:08.156Z,73.91
2023-04-15T08:17:36.882Z,71.81
2023-04-15T08:20:05.957Z,70.08
2023-04-15T08:22:34.498Z,72.49
2023-04-15T08:25:03.905Z,73.11
2023-04-15T08:27:31.231Z,72.16
2023-04-15T08:29:59.647Z,71.98
2023-04-15T08:32:28.492Z,72.86
2023-04-15T08:34:56.924Z,72.92
2023-04-15T08:37:28.423Z,72.83
2023-04-15T08:39:57.070Z,71.11
2023-04-15T08:42:36.354Z,71.28
2023-04-15T08:45:05.849Z,68.63
2023-04-15T08:47:35.152Z,69.74
2023-04-15T08:50:04.428Z,70.23
2023-04-15T08:52:33.366Z,69.81
2023-04-15T08:55:03.405Z,70.11
2023-04-15T08:57:32.187Z,67.22
2023-04-15T09:00:05.363Z,67.66
2023-04-15T09:02:34.537Z,67.99
2023-04-15T09:05:06.506Z,69.71
2023-04-15T09:07:36.478Z,67.52
2023-04-15T09:10:05.577Z,68.42
2023-04-15T09:12:36.186Z,67.22
2023-04-15T09:15:05.420Z,67.47
2023-04-15T09:17:34.608Z,68.22
2023-04-15T09:20:13.678Z,65.22
2023-04-15T09:22:43.770Z,65.80
2023-04-15T09:25:15.108Z,68.60
2023-04-15T09:27:50.975Z,69.28
2023-04-15T09:30:19.363Z,69.11
2023-04-15T09:32:51.275Z,64.17
2023-04-15T09:35:26.495Z,65.15
2023-04-15T09:38:07.289Z,66.13
2023-04-15T09:40:36.507Z,65.35
2023-04-15T09:43:06.522Z,65.48
2023-04-15T09:45:36.459Z,71.76
2023-04-15T09:48:28.821Z,73.81
2023-04-15T09:51:01.369Z,73.29
2023-04-15T09:53:31.825Z,73.14
2023-04-15T09:56:02.369Z,72.83
2023-04-15T09:58:35.173Z,71.85
2023-04-15T10:01:05.134Z,73.14
2023-04-15T10:03:36.842Z,72.63
2023-04-15T10:06:08.382Z,74.96
2023-04-15T10:08:37.138Z,73.17
2023-04-15T10:11:06.435Z,73.74
2023-04-15T10:13:37.156Z,74.33
2023-04-15T10:16:10.852Z,75.42
2023-04-15T10:18:44.588Z,77.61
2023-04-15T10:21:16.447Z,78.95
2023-04-15T10:23:48.174Z,80.83
2023-04-15T10:26:17.744Z,81.01
2023-04-15T10:28:49.587Z,82.33
2023-04-15T10:31:18.608Z,81.63
2023-04-15T10:33:48.668Z,78.62
2023-04-15T10:36:19.109Z,79.58
2023-04-15T10:38:47.992Z,79.35
2023-04-15T10:41:26.831Z,78.01
2023-04-15T10:43:59.442Z,79.66
2023-04-15T10:46:41.184Z,80.13
2023-04-15T10:49:17.965Z,79.44
2023-04-15T10:51:51.162Z,78.30
2023-04-15T10:54:26.008Z,80.24
2023-04-15T10:57:01.507Z,79.53
2023-04-15T10:59:30.848Z,80.20
2023-04-15T11:02:08.719Z,79.92
2023-04-15T11:05:01.055Z,78.54
2023-04-15T11:07:35.706Z,81.43
2023-04-15T11:10:30.938Z,79.59
2023-04-15T11:13:06.032Z,81.05
2023-04-15T11:15:42.523Z,81.59
2023-04-15T11:18:12.687Z,81.59
2023-04-15T11:21:03.451Z,80.24
2023-04-15T11:23:34.573Z,81.09
2023-04-15T11:26:12.425Z,79.82
2023-04-15T11:28:43.058Z,81.17
2023-04-15T11:31:14.110Z,79.80
2023-04-15T11:33:59.395Z,79.99
2023-04-15T11:36:30.171Z,78.26
2023-04-15T11:38:59.897Z,80.73
2023-04-15T11:41:28.626Z,79.29
2023-04-15T11:43:57.044Z,76.19
2023-04-15T11:46:32.030Z,76.11
2023-04-15T11:49:01.659Z,76.35
2023-04-15T11:51:33.759Z,75.83
2023-04-15T11:54:01.488Z,75.49
2023-04-15T11:56:28.874Z,73.77
2023-04-15T11:58:59.940Z,73.99
2023-04-15T12:01:44.004Z,73.66
2023-04-15T12:04:13.416Z,75.40
2023-04-15T12:06:41.356Z,75.08
2023-04-15T12:09:18.027Z,75.37
2023-04-15T12:11:55.234Z,75.43
2023-04-15T12:14:25.113Z,74.11
2023-04-15T12:16:55.213Z,73.89
2023-04-15T12:19:30.656Z,73.42
2023-04-15T12:22:03.311Z,73.78
2023-04-15T12:24:34.476Z,72.45
2023-04-15T12:27:06.903Z,73.13
2023-04-15T12:29:36.020Z,73.75
2023-04-15T12:32:13.082Z,74.32
2023-04-15T12:34:49.457Z,73.11
2023-04-15T12:37:16.975Z,73.71
2023-04-15T12:39:46.049Z,74.54
2023-04-15T12:42:13.174Z,72.60
2023-04-15T12:44:40.621Z,71.99
2023-04-15T12:47:09.321Z,74.04
2023-04-15T12:49:36.553Z,73.02
2023-04-15T12:52:04.740Z,71.49
2023-04-15T12:54:32.344Z,72.73
2023-04-15T12:57:00.028Z,71.80
2023-04-15T12:59:27.508Z,71.81
2023-04-15T13:01:54.931Z,72.45
2023-04-15T13:04:22.496Z,72.11
2023-04-15T13:06:50.162Z,70.53
2023-04-15T13:09:17.460Z,71.05
2023-04-15T13:11:44.693Z,71.58
2023-04-15T13:14:13.102Z,72.56
2023-04-15T13:16:40.876Z,73.43
2023-04-15T13:19:08.372Z,71.70
2023-04-15T13:21:36.362Z,72.02
2023-04-15T13:24:04.940Z,73.00
2023-04-15T13:26:32.886Z,70.94
2023-04-15T13:29:01.311Z,69.93
2023-04-15T13:31:28.755Z,69.57
2023-04-15T13:33:57.069Z,69.11
2023-04-15T13:36:24.598Z,69.50
2023-04-15T13:38:52.061Z,68.23
2023-04-15T13:41:20.101Z,67.97
2023-04-15T13:43:47.593Z,68.50
2023-04-15T13:46:14.960Z,73.25
2023-04-15T13:48:42.375Z,67.95
2023-04-15T13:51:09.921Z,67.69
2023-04-15T13:53:38.972Z,69.64
2023-04-15T13:56:08.102Z,68.98
2023-04-15T13:58:36.704Z,69.12
2023-04-15T14:01:05.780Z,69.50
2023-04-15T14:03:36.082Z,67.94
2023-04-15T14:06:03.771Z,66.89
2023-04-15T14:08:31.691Z,69.70
2023-04-15T14:10:59.104Z,67.46
2023-04-15T14:13:26.216Z,66.01
2023-04-15T14:15:53.364Z,65.38
2023-04-15T14:18:23.538Z,66.07
2023-04-15T14:20:50.654Z,67.12
2023-04-15T14:23:17.828Z,67.06
2023-04-15T14:25:47.908Z,67.07
2023-04-15T14:28:15.782Z,67.03
2023-04-15T14:30:43.133Z,67.40
2023-04-15T14:33:10.575Z,69.96
2023-04-15T14:35:37.998Z,71.28
2023-04-15T14:38:06.145Z,70.72
2023-04-15T14:40:33.775Z,71.05
2023-04-15T14:43:00.902Z,70.85
2023-04-15T14:45:28.067Z,70.61
2023-04-15T14:47:55.959Z,69.55
2023-04-15T14:50:23.376Z,71.33
2023-04-15T14:52:50.522Z,70.37
2023-04-15T14:55:17.922Z,70.20
2023-04-15T14:57:45.039Z,69.12
2023-04-15T15:00:15.834Z,69.68
2023-04-15T15:02:44.011Z,70.29
2023-04-15T15:05:11.995Z,69.99
2023-04-15T15:07:40.955Z,70.27
2023-04-15T15:10:09.089Z,69.83
2023-04-15T15:12:36.535Z,71.31
2023-04-15T15:15:12.218Z,71.17
2023-04-15T15:17:47.489Z,71.84
2023-04-15T15:20:14.673Z,71.71
2023-04-15T15:22:41.800Z,73.15
2023-04-15T15:25:09.274Z,72.55
2023-04-15T15:27:38.225Z,73.51
2023-04-15T15:30:06.901Z,73.64
2023-04-15T15:32:34.590Z,73.95
2023-04-15T15:35:01.736Z,74.50
2023-04-15T15:37:30.880Z,74.62
2023-04-15T15:39:58.314Z,75.98
2023-04-15T15:42:25.552Z,76.52
2023-04-15T15:44:55.956Z,77.33
2023-04-15T15:47:23.564Z,77.92
2023-04-15T15:49:50.754Z,79.09
2023-04-15T15:52:19.337Z,77.45
2023-04-15T15:54:47.230Z,77.82
2023-04-15T15:57:14.431Z,77.17
2023-04-15T15:59:43.713Z,77.60
2023-04-15T16:02:12.732Z,78.35
2023-04-15T16:04:41.632Z,80.17
2023-04-15T16:07:10.625Z,82.22
2023-04-15T16:09:38.003Z,83.70
2023-04-15T16:12:05.524Z,84.63
2023-04-15T16:14:32.717Z,86.59
2023-04-15T16:16:59.873Z,87.26
2023-04-15T16:19:27.314Z,87.75
2023-04-15T16:21:54.948Z,86.73
2023-04-15T16:24:22.116Z,85.58
2023-04-15T16:26:49.527Z,85.23
2023-04-15T16:29:16.656Z,84.63
2023-04-15T16:31:43.798Z,83.07
2023-04-15T16:34:12.008Z,82.88
2023-04-15T16:36:40.583Z,83.71
2023-04-15T16:39:07.835Z,82.32
2023-04-15T16:41:35.407Z,81.97
2023-04-15T16:44:03.347Z,82.52
2023-04-15T16:46:31.626Z,82.74
2023-04-15T16:48:59.198Z,82.86
2023-04-15T16:51:27.350Z,83.11
2023-04-15T16:53:54.534Z,83.72
2023-04-15T16:56:22.137Z,84.50
2023-04-15T16:58:49.353Z,85.44
2023-04-15T17:01:16.801Z,84.93
2023-04-15T17:03:44.556Z,83.62
2023-04-15T17:06:12.143Z,81.75
2023-04-15T17:08:40.183Z,80.03
2023-04-15T17:11:07.693Z,78.64
2023-04-15T17:13:34.938Z,79.28
2023-04-15T17:16:02.477Z,80.82
2023-04-15T17:18:38.126Z,79.61
2023-04-15T17:21:13.234Z,80.75
2023-04-15T17:23:42.280Z,81.94
2023-04-15T17:26:09.858Z,83.44
2023-04-15T17:28:37.181Z,85.80
2023-04-15T17:31:08.079Z,86.97
2023-04-15T17:34:05.064Z,87.64
2023-04-15T17:36:37.095Z,88.88
2023-04-15T17:39:27.377Z,89.53
2023-04-15T17:42:15.674Z,91.70
2023-04-15T17:45:02.850Z,91.93
2023-04-15T17:47:50.324Z,92.91
2023-04-15T17:50:38.518Z,92.18
2023-04-15T17:53:26.099Z,92.52
2023-04-15T17:56:13.118Z,94.41
2023-04-15T17:59:02.477Z,94.38
2023-04-15T18:01:49.913Z,94.18
2023-04-15T18:04:37.528Z,93.58
2023-04-15T18:07:24.705Z,94.71
2023-04-15T18:10:12.149Z,94.99
2023-04-15T18:12:59.434Z,95.06
2023-04-15T18:15:48.666Z,95.13
2023-04-15T18:18:35.899Z,95.36
2023-04-15T18:21:03.392Z,95.49
2023-04-15T18:23:30.520Z,96.05
2023-04-15T18:25:58.166Z,95.70
2023-04-15T18:28:25.645Z,96.19
2023-04-15T18:30:53.623Z,95.63
2023-04-15T18:33:20.979Z,95.83
2023-04-15T18:35:49.974Z,96.92
2023-04-15T18:38:17.337Z,97.05
2023-04-15T18:40:44.443Z,96.63
2023-04-15T18:43:14.359Z,96.65
2023-04-15T18:45:41.601Z,96.73
2023-04-15T18:48:08.816Z,97.20
2023-04-15T18:50:36.386Z,97.08
2023-04-15T18:53:03.565Z,97.29
2023-04-15T18:55:31.373Z,97.61
2023-04-15T18:58:07.569Z,97.59
2023-04-15T19:00:40.342Z,97.26
2023-04-15T19:03:08.177Z,97.02
2023-04-15T19:05:36.042Z,96.85
2023-04-15T19:08:03.226Z,96.57
2023-04-15T19:10:30.693Z,96.65
2023-04-15T19:12:57.861Z,97.07
2023-04-15T19:15:25.184Z,96.52
2023-04-15T19:17:54.296Z,96.47
2023-04-15T19:20:22.900Z,96.26
2023-04-15T19:22:50.066Z,96.90
2023-04-15T19:25:17.563Z,97.06
2023-04-15T19:27:44.748Z,97.42
2023-04-15T19:30:12.121Z,98.20
2023-04-15T19:32:39.768Z,98.44
2023-04-15T19:35:08.320Z,98.92
2023-04-15T19:37:36.534Z,98.62
2023-04-15T19:40:04.769Z,98.36
2023-04-15T19:42:31.932Z,98.04
2023-04-15T19:44:59.138Z,97.61
2023-04-15T19:47:28.012Z,97.76
2023-04-15T19:49:55.382Z,97.75
2023-04-15T19:52:22.615Z,98.25
2023-04-15T19:54:50.177Z,99.46
2023-04-15T19:57:17.423Z,99.73
2023-04-15T19:59:44.620Z,99.58
2023-04-15T20:02:12.583Z,99.44
2023-04-15T20:04:40.268Z,99.81
2023-04-15T20:07:07.553Z,99.26
2023-04-15T20:09:34.765Z,98.83
2023-04-15T20:12:46.792Z,99.17
2023-04-15T20:14:49.510Z,99.09
2023-04-15T20:17:17.095Z,99.02
2023-04-15T20:19:44.316Z,98.51
2023-04-15T20:22:11.498Z,98.46
2023-04-15T20:24:38.993Z,98.56
2023-04-15T20:27:06.186Z,98.44
2023-04-15T20:29:33.599Z,98.32
2023-04-15T20:32:01.213Z,98.52
2023-04-15T20:34:28.439Z,98.46
2023-04-15T20:36:55.823Z,98.25
2023-04-15T20:39:23.336Z,98.34
2023-04-15T20:41:50.752Z,97.65
2023-04-15T20:44:17.984Z,97.52
2023-04-15T20:46:45.743Z,98.44
2023-04-15T20:49:12.910Z,98.97
2023-04-15T20:51:40.058Z,98.78
2023-04-15T20:54:07.446Z,98.55
2023-04-15T20:56:34.610Z,99.30
2023-04-15T20:59:01.779Z,99.16
2023-04-15T21:01:29.298Z,98.99
2023-04-15T21:03:56.572Z,98.61
2023-04-15T21:06:23.689Z,98.60
2023-04-15T21:08:52.448Z,98.61
2023-04-15T21:11:38.850Z,98.52
2023-04-15T21:14:08.434Z,98.42
2023-04-15T21:16:35.753Z,98.48
2023-04-15T21:19:03.237Z,98.37
2023-04-15T21:21:31.977Z,98.02
2023-04-15T21:23:59.613Z,97.73
2023-04-15T21:26:26.799Z,97.96
2023-04-15T21:28:54.287Z,98.34
2023-04-15T21:31:22.115Z,98.01
2023-04-15T21:33:49.606Z,98.13
2023-04-15T21:36:17.076Z,98.47
2023-04-15T21:38:44.315Z,99.33
2023-04-15T21:41:11.525Z,99.39
2023-04-15T21:43:38.998Z,99.03
2023-04-15T21:46:22.695Z,99.39
2023-04-15T21:48:53.570Z,99.90
2023-04-15T21:51:20.867Z,99.24
2023-04-15T21:53:48.255Z,99.12
2023-04-15T21:56:15.873Z,98.32
2023-04-15T21:58:43.165Z,97.84
2023-04-15T22:01:10.515Z,97.76
2023-04-15T22:03:38.166Z,97.71
2023-04-15T22:06:05.506Z,97.34
2023-04-15T22:08:38.654Z,97.61
2023-04-15T22:11:29.600Z,98.36
2023-04-15T22:13:58.320Z,98.51
2023-04-15T22:16:26.545Z,98.38
2023-04-15T22:18:54.739Z,98.50
2023-04-15T22:21:22.160Z,98.53
2023-04-15T22:23:49.871Z,98.92
2023-04-15T22:26:16.955Z,98.73
2023-04-15T22:28:44.173Z,99.07
2023-04-15T22:31:11.665Z,99.17
2023-04-15T22:33:39.006Z,99.45
2023-04-15T22:36:06.401Z,99.39
2023-04-15T22:38:33.916Z,99.46
2023-04-15T22:41:01.239Z,99.42
2023-04-15T22:43:28.435Z,99.38
2023-04-15T22:45:56.691Z,99.48
2023-04-15T22:48:24.033Z,99.29
2023-04-15T22:50:51.324Z,99.26
2023-04-15T22:53:19.025Z,99.62
2023-04-15T22:55:49.591Z,99.03
2023-04-15T22:58:18.354Z,99.32
2023-04-15T23:00:45.934Z,99.34
2023-04-15T23:03:13.267Z,99.51
2023-04-15T23:05:41.233Z,99.19
2023-04-15T23:08:08.825Z,99.46
2023-04-15T23:10:35.949Z,99.46
2023-04-15T23:13:03.080Z,99.56
2023-04-15T23:15:30.540Z,99.82
2023-04-15T23:17:57.678Z,100.00
2023-04-15T23:20:24.888Z,100.00
2023-04-15T23:22:52.313Z,100.00
2023-04-15T23:25:22.245Z,100.00
2023-04-15T23:27:49.546Z,100.00
2023-04-15T23:30:17.036Z,100.00
2023-04-15T23:32:44.347Z,99.54
2023-04-15T23:35:11.680Z,98.67
2023-04-15T23:37:39.161Z,98.57
2023-04-15T23:40:07.052Z,98.52
2023-04-15T23:42:34.239Z,98.14
2023-04-15T23:45:01.858Z,97.64
2023-04-15T23:47:30.934Z,97.55
2023-04-15T23:49:58.022Z,97.77
2023-04-15T23:52:25.456Z,97.64
2023-04-15T23:54:52.586Z,98.13
2023-04-15T23:57:19.796Z,98.00
2023-04-15T23:59:47.261Z,98.42
